Richmond, VA

3:56 AM EST on December 26, 2014 (GMT -0500)
University Hts. | Change Station
CLOSE
Current Station
Personal Weather Station
Location: Richmond, VA
Elevation: 276 ft
Nearby Weather Stations

Elev 276 ft 37.59 °N, 77.56 °W | Updated 3 seconds ago

Clear
Clear
31.7 °F
Feels Like 32 °F
N
0.0
Wind Variable Wind from NW
Gusts 0.0 mph

Today
High -- | Low -- °F
--% Chance of Precip.
Yesterday
High -- | Low -- °F
Precip. -- in
7:23 AM 4:58 PM
Waxing Crescent, 24% visible
Pressure 30.27 in
Visibility 10.0 miles
Clouds Clear
Windchill 32 °F
Dew Point 28 °F
Humidity 87%
Rainfall 0.00 in
Snow Depth Not available.
UV 0 out of 12
Pollen .10 out of 12
Air Quality Not available.
Flu Activity Not available.
METAR KRIC 260754Z 00000KT 10SM CLR 01/M02 A3026 RMK AO2 SLP251 T00061017 $

More Conditions Fewer Conditions

Pressure 30.27 in
Visibility 10.0 miles
Clouds Clear
Windchill 32 °F
Dew Point 28 °F
Humidity 87%
Rainfall 0.00 in
Snow Depth Not available.
UV 0 out of 12
Pollen .10 out of 12
Air Quality Not available.
Flu Activity Not available.
METAR KRIC 260754Z 00000KT 10SM CLR 01/M02 A3026 RMK AO2 SLP251 T00061017 $

More Conditions Fewer Conditions

10-Day Weather Forecast

Almanac

Astronomy

Dec. 26, 2014 Rise Set
Actual Time
Civil Twilight
Nautical Twilight
Astronomical Twilight
Moon
Length of Visible Light
Length of Day
Tomorrow will be .
, % of the Moon is Illuminated

Today's Extremes

State Highs State Lows

Community

WunderPhotos

Upload Photos

1,780,568 photos uploaded!

WunderBlogs® & News

Nearby

Air Quality

  Air Quality AQ Index Pollutant
Not available.

Snow Depth

Station Depth Elevation

Earthquake Activity

City Distance Mag. Time & Date
Minimum magnitude displayed is 2.5.

Coastal Water Temperatures

Place Temperature

Nearby Weather Stations